createdAt,value
2023-03-26T00:02:17.089Z,7.19
2023-03-26T00:04:46.637Z,7.18
2023-03-26T00:07:16.200Z,7.22
2023-03-26T00:09:47.004Z,7.23
2023-03-26T00:12:16.493Z,7.24
2023-03-26T00:14:45.575Z,7.19
2023-03-26T00:17:14.574Z,7.21
2023-03-26T00:19:44.246Z,7.29
2023-03-26T00:22:14.356Z,7.27
2023-03-26T00:24:46.021Z,7.30
2023-03-26T00:27:16.479Z,7.36
2023-03-26T00:29:48.310Z,7.32
2023-03-26T00:32:17.962Z,7.33
2023-03-26T00:34:47.838Z,7.30
2023-03-26T00:37:16.869Z,7.34
2023-03-26T00:39:49.179Z,7.40
2023-03-26T00:42:20.082Z,7.39
2023-03-26T00:44:51.237Z,7.38
2023-03-26T00:47:20.418Z,7.38
2023-03-26T00:49:50.791Z,7.33
2023-03-26T00:52:20.126Z,7.40
2023-03-26T00:54:49.701Z,7.37
2023-03-26T00:57:34.490Z,7.39
2023-03-26T01:00:16.580Z,7.45
2023-03-26T01:02:46.409Z,7.41
2023-03-26T01:05:58.710Z,7.39
2023-03-26T01:08:32.456Z,7.42
2023-03-26T01:11:14.248Z,7.42
2023-03-26T01:13:50.914Z,7.35
2023-03-26T01:16:27.310Z,7.29
2023-03-26T01:18:58.812Z,7.34
2023-03-26T01:21:30.547Z,7.38
2023-03-26T01:24:02.714Z,7.32
2023-03-26T01:26:57.395Z,7.29
2023-03-26T01:29:34.669Z,7.29
2023-03-26T01:32:21.955Z,7.24
2023-03-26T01:35:07.234Z,7.21
2023-03-26T01:37:46.879Z,7.20
2023-03-26T01:40:26.504Z,7.22
2023-03-26T01:43:05.087Z,7.26
2023-03-26T01:45:37.876Z,7.24
2023-03-26T01:48:08.296Z,7.23
2023-03-26T01:50:37.550Z,7.24
2023-03-26T01:53:08.970Z,7.15
2023-03-26T01:55:49.824Z,7.14
2023-03-26T01:58:27.970Z,7.14
2023-03-26T02:01:07.391Z,7.16
2023-03-26T02:03:43.171Z,7.12
2023-03-26T02:06:17.693Z,7.07
2023-03-26T02:08:53.977Z,7.05
2023-03-26T02:11:34.640Z,7.02
2023-03-26T02:14:06.515Z,7.03
2023-03-26T02:16:36.166Z,7.03
2023-03-26T02:19:10.039Z,7.04
2023-03-26T02:21:39.413Z,7.05
2023-03-26T02:24:09.464Z,7.04
2023-03-26T02:26:40.878Z,7.05
2023-03-26T02:29:14.642Z,7.07
2023-03-26T02:31:47.386Z,7.06
2023-03-26T02:34:17.132Z,7.09
2023-03-26T02:36:54.734Z,7.15
2023-03-26T02:39:24.096Z,7.08
2023-03-26T02:42:05.696Z,7.11
2023-03-26T02:44:41.317Z,7.08
2023-03-26T02:47:33.818Z,7.17
2023-03-26T02:50:22.117Z,7.18
2023-03-26T02:53:10.143Z,7.12
2023-03-26T02:55:42.901Z,7.12
2023-03-26T02:58:17.562Z,7.16
2023-03-26T03:00:47.360Z,7.19
2023-03-26T03:03:42.943Z,7.24
2023-03-26T03:06:41.786Z,7.21
2023-03-26T03:09:11.103Z,7.16
2023-03-26T03:11:41.950Z,7.26
2023-03-26T03:14:13.732Z,7.28
2023-03-26T03:16:44.104Z,7.27
2023-03-26T03:19:14.503Z,7.29
2023-03-26T03:21:44.291Z,7.27
2023-03-26T03:24:14.039Z,7.29
2023-03-26T03:26:47.953Z,7.27
2023-03-26T03:29:36.616Z,7.32
2023-03-26T03:32:34.829Z,7.34
2023-03-26T03:35:07.702Z,7.33
2023-03-26T03:37:37.532Z,7.44
2023-03-26T03:40:11.086Z,7.42
2023-03-26T03:42:42.712Z,7.41
2023-03-26T03:45:15.555Z,7.39
2023-03-26T03:48:00.762Z,7.39
2023-03-26T03:50:38.432Z,7.40
2023-03-26T03:53:28.953Z,7.39
2023-03-26T03:56:02.270Z,7.39
2023-03-26T03:59:08.902Z,7.39
2023-03-26T04:01:43.386Z,7.42
2023-03-26T04:04:22.212Z,7.41
2023-03-26T04:07:01.458Z,7.40
2023-03-26T04:09:54.273Z,7.41
2023-03-26T04:12:25.498Z,7.44
2023-03-26T04:15:05.958Z,7.44
2023-03-26T04:17:42.955Z,7.47
2023-03-26T04:20:15.976Z,7.56
2023-03-26T04:22:48.246Z,7.53
2023-03-26T04:25:19.674Z,7.51
2023-03-26T04:28:08.564Z,7.51
2023-03-26T04:31:00.753Z,7.54
2023-03-26T04:33:41.976Z,7.56
2023-03-26T04:36:12.658Z,7.57
2023-03-26T04:38:44.724Z,7.56
2023-03-26T04:41:16.847Z,7.57
2023-03-26T04:43:50.758Z,7.59
2023-03-26T04:46:43.713Z,7.59
2023-03-26T04:49:26.966Z,7.60
2023-03-26T04:51:56.836Z,7.61
2023-03-26T04:55:01.922Z,7.61
2023-03-26T04:57:38.880Z,7.64
2023-03-26T05:00:16.690Z,7.68
2023-03-26T05:02:50.860Z,7.66
2023-03-26T05:05:22.991Z,7.68
2023-03-26T05:07:53.371Z,7.67
2023-03-26T05:10:24.494Z,7.71
2023-03-26T05:12:59.503Z,7.76
2023-03-26T05:15:32.858Z,7.77
2023-03-26T05:18:20.925Z,7.80
2023-03-26T05:20:56.242Z,7.77
2023-03-26T05:23:26.167Z,7.77
2023-03-26T05:26:12.077Z,7.79
2023-03-26T05:28:41.602Z,7.79
2023-03-26T05:31:33.561Z,7.93
2023-03-26T05:34:04.822Z,7.92
2023-03-26T05:36:35.598Z,7.99
2023-03-26T05:39:26.241Z,7.97
2023-03-26T05:41:55.654Z,8.00
2023-03-26T05:44:31.901Z,8.01
2023-03-26T05:47:05.133Z,7.93
2023-03-26T05:49:34.519Z,7.91
2023-03-26T05:52:05.132Z,7.89
2023-03-26T05:54:44.249Z,7.85
2023-03-26T05:57:39.349Z,7.91
2023-03-26T06:00:27.609Z,7.92
2023-03-26T06:02:58.973Z,7.92
2023-03-26T06:05:57.552Z,7.98
2023-03-26T06:09:01.623Z,8.05
2023-03-26T06:11:33.991Z,8.15
2023-03-26T06:14:05.721Z,8.22
2023-03-26T06:16:37.846Z,8.11
2023-03-26T06:19:22.680Z,8.10
2023-03-26T06:21:59.959Z,8.17
2023-03-26T06:24:36.745Z,8.28
2023-03-26T06:27:44.433Z,8.23
2023-03-26T06:30:46.827Z,8.26
2023-03-26T06:33:24.755Z,8.32
2023-03-26T06:35:54.506Z,8.29
2023-03-26T06:38:23.818Z,8.36
2023-03-26T06:40:54.915Z,8.39
2023-03-26T06:43:42.482Z,8.31
2023-03-26T06:46:15.060Z,8.34
2023-03-26T06:49:03.188Z,8.42
2023-03-26T06:52:03.119Z,8.34
2023-03-26T06:54:51.775Z,8.34
2023-03-26T06:57:49.451Z,8.29
2023-03-26T07:00:42.381Z,8.36
2023-03-26T07:03:30.820Z,8.38
2023-03-26T07:06:18.843Z,8.45
2023-03-26T07:09:07.084Z,8.37
2023-03-26T07:11:55.507Z,8.43
2023-03-26T07:14:44.564Z,8.51
2023-03-26T07:17:46.919Z,8.53
2023-03-26T07:20:27.576Z,8.54
2023-03-26T07:22:57.967Z,8.54
2023-03-26T07:25:55.571Z,8.60
2023-03-26T07:29:03.709Z,8.61
2023-03-26T07:32:24.560Z,8.61
2023-03-26T07:35:20.399Z,8.61
2023-03-26T07:38:29.085Z,8.63
2023-03-26T07:41:27.386Z,8.66
2023-03-26T07:44:47.112Z,8.70
2023-03-26T07:47:28.966Z,8.69
2023-03-26T07:50:27.961Z,8.76
2023-03-26T07:53:27.029Z,8.77
2023-03-26T07:56:13.679Z,8.73
2023-03-26T07:59:22.882Z,8.75
2023-03-26T08:02:53.684Z,8.80
2023-03-26T08:05:50.496Z,8.82
2023-03-26T08:08:43.468Z,8.78
2023-03-26T08:11:41.762Z,8.76
2023-03-26T08:14:26.242Z,8.79
2023-03-26T08:16:59.862Z,8.81
2023-03-26T08:19:46.900Z,8.87
2023-03-26T08:22:26.385Z,8.96
2023-03-26T08:25:18.105Z,8.98
2023-03-26T08:27:58.157Z,9.03
2023-03-26T08:30:29.042Z,9.15
2023-03-26T08:33:01.776Z,9.20
2023-03-26T08:35:33.961Z,9.20
2023-03-26T08:38:04.694Z,9.22
2023-03-26T08:41:17.192Z,9.33
2023-03-26T08:44:16.447Z,9.39
2023-03-26T08:46:58.642Z,9.44
2023-03-26T08:50:04.461Z,9.48
2023-03-26T08:53:09.850Z,9.52
2023-03-26T08:55:53.717Z,9.57
2023-03-26T08:58:58.548Z,9.60
2023-03-26T09:01:55.739Z,9.70
2023-03-26T09:04:56.882Z,9.74
2023-03-26T09:08:17.614Z,9.81
2023-03-26T09:11:27.858Z,9.83
2023-03-26T09:14:28.031Z,9.94
2023-03-26T09:17:28.892Z,10.02
2023-03-26T09:20:48.431Z,10.06
2023-03-26T09:23:49.781Z,10.10
2023-03-26T09:26:31.077Z,10.18
2023-03-26T09:29:45.188Z,10.25
2023-03-26T09:32:44.004Z,10.31
2023-03-26T09:35:32.507Z,10.40
2023-03-26T09:38:11.294Z,10.45
2023-03-26T09:40:53.298Z,10.47
2023-03-26T09:43:44.187Z,10.47
2023-03-26T09:46:28.732Z,10.48
2023-03-26T09:49:21.036Z,10.55
2023-03-26T09:52:14.470Z,10.56
2023-03-26T09:55:15.524Z,10.59
2023-03-26T09:58:02.490Z,10.59
2023-03-26T10:00:43.151Z,10.51
2023-03-26T10:03:30.729Z,10.54
2023-03-26T10:06:18.582Z,10.47
2023-03-26T10:08:59.294Z,10.39
2023-03-26T10:11:38.690Z,10.33
2023-03-26T10:14:20.260Z,10.38
2023-03-26T10:17:05.104Z,10.37
2023-03-26T10:19:54.906Z,10.36
2023-03-26T10:22:43.653Z,10.40
2023-03-26T10:25:34.871Z,10.42
2023-03-26T10:28:26.497Z,10.37
2023-03-26T10:31:18.116Z,10.39
2023-03-26T10:33:59.119Z,10.37
2023-03-26T10:36:35.830Z,10.43
2023-03-26T10:39:38.142Z,10.49
2023-03-26T10:42:26.825Z,10.53
2023-03-26T10:45:26.041Z,10.62
2023-03-26T10:48:23.426Z,10.62
2023-03-26T10:51:15.536Z,10.62
2023-03-26T10:53:50.452Z,10.65
2023-03-26T10:56:26.640Z,10.63
2023-03-26T10:58:58.024Z,10.66
2023-03-26T11:01:37.303Z,10.71
2023-03-26T11:04:19.308Z,10.77
2023-03-26T11:07:00.842Z,10.78
2023-03-26T11:09:41.952Z,10.82
2023-03-26T11:12:26.759Z,10.85
2023-03-26T11:15:16.322Z,10.84
2023-03-26T11:17:56.190Z,10.81
2023-03-26T11:20:37.310Z,10.83
2023-03-26T11:23:34.757Z,10.80
2023-03-26T11:26:13.185Z,10.78
2023-03-26T11:29:03.925Z,10.73
2023-03-26T11:32:02.060Z,10.73
2023-03-26T11:34:37.191Z,10.68
2023-03-26T11:37:15.438Z,10.64
2023-03-26T11:39:50.993Z,10.65
2023-03-26T11:42:24.572Z,10.67
2023-03-26T11:44:57.680Z,10.71
2023-03-26T11:47:38.401Z,10.71
2023-03-26T11:50:11.981Z,10.77
2023-03-26T11:52:42.294Z,10.79
2023-03-26T11:55:15.908Z,10.78
2023-03-26T11:57:56.447Z,10.81
2023-03-26T12:00:28.180Z,10.81
2023-03-26T12:03:01.700Z,10.82
2023-03-26T12:05:50.239Z,10.82
2023-03-26T12:08:29.954Z,10.90
2023-03-26T12:11:08.947Z,10.97
2023-03-26T12:13:44.272Z,11.02
2023-03-26T12:16:17.273Z,11.02
2023-03-26T12:18:58.244Z,11.04
2023-03-26T12:21:28.082Z,11.08
2023-03-26T12:24:03.529Z,11.09
2023-03-26T12:26:42.483Z,11.14
2023-03-26T12:29:14.332Z,11.14
2023-03-26T12:31:52.313Z,11.16
2023-03-26T12:34:23.807Z,11.12
2023-03-26T12:36:55.750Z,11.03
2023-03-26T12:40:08.734Z,10.91
2023-03-26T12:44:46.700Z,10.80
2023-03-26T12:45:30.400Z,10.75
2023-03-26T12:48:04.241Z,10.71
2023-03-26T12:50:53.079Z,10.72
2023-03-26T12:53:50.829Z,10.78
2023-03-26T12:56:36.589Z,10.87
2023-03-26T12:59:29.893Z,10.81
2023-03-26T13:02:13.792Z,10.77
2023-03-26T13:05:05.652Z,10.71
2023-03-26T13:08:14.894Z,10.58
2023-03-26T13:10:51.615Z,10.43
2023-03-26T13:13:39.365Z,10.37
2023-03-26T13:16:17.885Z,10.42
2023-03-26T13:18:54.517Z,10.44
2023-03-26T13:21:35.985Z,10.48
2023-03-26T13:24:22.480Z,10.50
2023-03-26T13:27:09.189Z,10.57
2023-03-26T13:29:48.005Z,10.59
2023-03-26T13:32:30.919Z,10.65
2023-03-26T13:35:16.299Z,10.59
2023-03-26T13:37:56.756Z,10.60
2023-03-26T13:40:36.678Z,10.73
2023-03-26T13:43:19.324Z,10.84
2023-03-26T13:45:58.355Z,11.02
2023-03-26T13:48:33.557Z,11.07
2023-03-26T13:51:11.153Z,11.08
2023-03-26T13:53:48.869Z,11.08
2023-03-26T13:56:21.850Z,11.09
2023-03-26T13:58:56.656Z,11.07
2023-03-26T14:01:35.151Z,11.10
2023-03-26T14:04:16.102Z,11.21
2023-03-26T14:06:54.263Z,11.36
2023-03-26T14:09:30.485Z,11.51
2023-03-26T14:12:22.150Z,11.81
2023-03-26T14:14:56.469Z,12.14
2023-03-26T14:17:31.382Z,12.47
2023-03-26T14:20:49.490Z,12.88
2023-03-26T14:23:40.589Z,13.18
2023-03-26T14:26:21.711Z,13.43
2023-03-26T14:29:11.567Z,13.66
2023-03-26T14:31:50.997Z,13.81
2023-03-26T14:34:45.339Z,14.04
2023-03-26T14:37:46.911Z,14.33
2023-03-26T14:40:53.131Z,14.47
2023-03-26T14:43:51.267Z,14.72
2023-03-26T14:46:38.881Z,14.70
2023-03-26T14:49:46.838Z,14.70
2023-03-26T14:52:23.740Z,14.73
2023-03-26T14:54:58.093Z,14.58
2023-03-26T14:58:04.034Z,14.44
2023-03-26T15:01:18.001Z,14.14
2023-03-26T15:04:38.770Z,13.88
2023-03-26T15:07:42.772Z,13.60
2023-03-26T15:10:49.997Z,13.33
2023-03-26T15:13:55.238Z,13.09
2023-03-26T15:16:54.681Z,12.75
2023-03-26T15:20:11.705Z,12.43
2023-03-26T15:23:33.122Z,12.12
2023-03-26T15:26:37.124Z,11.90
2023-03-26T15:29:35.652Z,11.71
2023-03-26T15:32:49.470Z,11.60
2023-03-26T15:35:41.331Z,11.46
2023-03-26T15:38:43.649Z,11.26
2023-03-26T15:41:28.494Z,11.12
2023-03-26T15:44:40.977Z,11.20
2023-03-26T15:47:38.313Z,11.14
2023-03-26T15:50:26.131Z,11.05
2023-03-26T15:53:07.270Z,10.97
2023-03-26T15:55:45.920Z,10.80
2023-03-26T15:58:28.059Z,10.66
2023-03-26T16:01:19.042Z,10.47
2023-03-26T16:03:59.856Z,10.32
2023-03-26T16:06:41.382Z,10.18
2023-03-26T16:09:39.121Z,9.94
2023-03-26T16:12:29.594Z,9.73
2023-03-26T16:15:32.619Z,9.43
2023-03-26T16:18:30.793Z,9.19
2023-03-26T16:21:41.198Z,9.04
2023-03-26T16:24:24.926Z,8.86
2023-03-26T16:27:24.632Z,8.64
2023-03-26T16:30:26.076Z,8.55
2023-03-26T16:32:59.541Z,8.46
2023-03-26T16:36:07.557Z,8.36
2023-03-26T16:38:55.622Z,8.36
2023-03-26T16:41:28.193Z,8.21
2023-03-26T16:44:22.617Z,8.11
2023-03-26T16:47:01.445Z,8.01
2023-03-26T16:49:45.952Z,7.91
2023-03-26T16:52:34.387Z,7.80
2023-03-26T16:55:15.611Z,7.74
2023-03-26T16:57:53.696Z,7.66
2023-03-26T17:00:32.655Z,7.51
2023-03-26T17:03:37.666Z,7.44
2023-03-26T17:06:21.095Z,7.38
2023-03-26T17:09:02.836Z,7.25
2023-03-26T17:11:47.038Z,7.23
2023-03-26T17:14:31.212Z,7.19
2023-03-26T17:17:23.352Z,7.12
2023-03-26T17:20:01.406Z,7.03
2023-03-26T17:22:50.745Z,6.91
2023-03-26T17:25:37.304Z,6.81
2023-03-26T17:28:29.828Z,6.70
2023-03-26T17:31:06.712Z,6.64
2023-03-26T17:33:39.766Z,6.59
2023-03-26T17:36:41.625Z,6.47
2023-03-26T17:39:38.623Z,6.30
2023-03-26T17:42:27.105Z,6.21
2023-03-26T17:44:59.507Z,6.14
2023-03-26T17:47:36.186Z,6.06
2023-03-26T17:50:18.905Z,6.01
2023-03-26T17:52:57.725Z,5.96
2023-03-26T17:55:32.392Z,5.86
2023-03-26T17:58:08.206Z,5.78
2023-03-26T18:00:48.026Z,5.65
2023-03-26T18:03:49.544Z,5.58
2023-03-26T18:06:46.266Z,5.51
2023-03-26T18:09:33.075Z,5.49
2023-03-26T18:12:30.135Z,5.45
2023-03-26T18:15:25.626Z,5.35
2023-03-26T18:18:11.143Z,5.23
2023-03-26T18:21:08.167Z,5.16
2023-03-26T18:23:45.261Z,5.09
2023-03-26T18:26:21.683Z,5.09
2023-03-26T18:29:13.040Z,5.01
2023-03-26T18:31:47.337Z,5.00
2023-03-26T18:34:21.450Z,4.90
2023-03-26T18:37:11.039Z,4.82
2023-03-26T18:39:45.030Z,4.84
2023-03-26T18:42:23.324Z,4.79
2023-03-26T18:44:59.858Z,4.75
2023-03-26T18:47:38.497Z,4.68
2023-03-26T18:50:21.266Z,4.68
2023-03-26T18:52:53.414Z,4.67
2023-03-26T18:55:29.483Z,4.68
2023-03-26T18:58:23.721Z,4.63
2023-03-26T19:01:04.200Z,4.63
2023-03-26T19:03:40.895Z,4.64
2023-03-26T19:06:17.370Z,4.64
2023-03-26T19:08:48.606Z,4.55
2023-03-26T19:11:24.393Z,4.58
2023-03-26T19:14:16.904Z,4.51
2023-03-26T19:16:58.625Z,4.42
2023-03-26T19:19:36.873Z,4.40
2023-03-26T19:22:13.830Z,4.40
2023-03-26T19:24:46.783Z,4.40
2023-03-26T19:27:22.070Z,4.38
2023-03-26T19:29:54.259Z,4.42
2023-03-26T19:32:32.891Z,4.41
2023-03-26T19:35:21.245Z,4.35
2023-03-26T19:37:54.353Z,4.35
2023-03-26T19:40:30.151Z,4.30
2023-03-26T19:43:04.525Z,4.37
2023-03-26T19:45:38.715Z,4.29
2023-03-26T19:48:45.506Z,4.25
2023-03-26T19:51:32.312Z,4.23
2023-03-26T19:54:14.562Z,4.19
2023-03-26T19:56:44.505Z,4.22
2023-03-26T19:59:16.076Z,4.22
2023-03-26T20:01:45.808Z,4.19
2023-03-26T20:04:16.918Z,4.17
2023-03-26T20:06:52.794Z,4.18
2023-03-26T20:09:25.581Z,4.20
2023-03-26T20:11:57.418Z,4.22
2023-03-26T20:14:27.837Z,4.23
2023-03-26T20:16:57.797Z,4.25
2023-03-26T20:19:33.867Z,4.27
2023-03-26T20:22:07.997Z,4.29
2023-03-26T20:24:41.740Z,4.30
2023-03-26T20:27:14.253Z,4.29
2023-03-26T20:29:46.812Z,4.25
2023-03-26T20:32:26.482Z,4.27
2023-03-26T20:34:57.778Z,4.26
2023-03-26T20:37:31.537Z,4.26
2023-03-26T20:40:01.918Z,4.22
2023-03-26T20:42:56.852Z,4.20
2023-03-26T20:45:26.316Z,4.15
2023-03-26T20:47:55.822Z,4.10
2023-03-26T20:50:28.873Z,4.07
2023-03-26T20:53:02.476Z,4.06
2023-03-26T20:55:32.188Z,4.04
2023-03-26T20:58:01.312Z,4.02
2023-03-26T21:00:32.651Z,4.01
2023-03-26T21:03:02.223Z,4.01
2023-03-26T21:05:32.334Z,3.99
2023-03-26T21:08:02.925Z,3.95
2023-03-26T21:10:35.811Z,3.92
2023-03-26T21:13:09.656Z,3.88
2023-03-26T21:15:39.758Z,3.87
2023-03-26T21:18:09.734Z,3.86
2023-03-26T21:20:40.887Z,3.83
2023-03-26T21:23:21.005Z,3.81
2023-03-26T21:26:01.570Z,3.78
2023-03-26T21:28:42.025Z,3.77
2023-03-26T21:31:18.544Z,3.75
2023-03-26T21:33:49.844Z,3.74
2023-03-26T21:36:21.058Z,3.72
2023-03-26T21:38:54.710Z,3.72
2023-03-26T21:41:36.198Z,3.72
2023-03-26T21:44:05.534Z,3.70
2023-03-26T21:46:35.569Z,3.69
2023-03-26T21:49:04.810Z,3.72
2023-03-26T21:51:34.849Z,3.70
2023-03-26T21:54:07.056Z,3.69
2023-03-26T21:56:49.944Z,3.69
2023-03-26T21:59:27.625Z,3.71
2023-03-26T22:02:03.386Z,3.74
2023-03-26T22:04:40.367Z,3.75
2023-03-26T22:07:14.763Z,3.78
2023-03-26T22:09:46.344Z,3.78
2023-03-26T22:12:16.863Z,3.81
2023-03-26T22:14:46.213Z,3.85
2023-03-26T22:17:15.513Z,3.86
2023-03-26T22:19:44.666Z,3.86
2023-03-26T22:22:14.946Z,3.87
2023-03-26T22:24:45.479Z,4.02
2023-03-26T22:27:16.117Z,4.14
2023-03-26T22:29:45.466Z,4.11
2023-03-26T22:32:15.033Z,4.10
2023-03-26T22:34:45.006Z,4.23
2023-03-26T22:37:14.531Z,4.30
2023-03-26T22:39:45.827Z,4.31
2023-03-26T22:42:15.959Z,4.34
2023-03-26T22:44:44.839Z,4.36
2023-03-26T22:47:16.672Z,4.35
2023-03-26T22:49:46.571Z,4.31
2023-03-26T22:52:16.059Z,4.40
2023-03-26T22:54:46.471Z,4.41
2023-03-26T22:57:16.087Z,4.43
2023-03-26T22:59:45.294Z,4.45
2023-03-26T23:02:16.582Z,4.43
2023-03-26T23:04:46.327Z,4.45
2023-03-26T23:07:15.470Z,4.44
2023-03-26T23:09:46.034Z,4.43
2023-03-26T23:12:15.701Z,4.40
2023-03-26T23:14:44.777Z,4.37
2023-03-26T23:17:14.758Z,4.35
2023-03-26T23:19:44.615Z,4.34
2023-03-26T23:22:14.224Z,4.37
2023-03-26T23:24:43.574Z,4.41
2023-03-26T23:27:14.415Z,4.36
2023-03-26T23:29:45.877Z,4.35
2023-03-26T23:32:24.483Z,4.47
2023-03-26T23:34:55.793Z,4.52
2023-03-26T23:37:25.339Z,4.53
2023-03-26T23:39:54.500Z,4.44
2023-03-26T23:42:29.122Z,4.42
2023-03-26T23:44:58.964Z,4.52
2023-03-26T23:47:34.553Z,4.61
2023-03-26T23:50:05.667Z,4.59
2023-03-26T23:52:35.074Z,4.58
2023-03-26T23:55:04.269Z,4.58
2023-03-26T23:57:37.196Z,4.53
